sensor_id;sensor_type;location;lat;lon;timestamp;P1;durP1;ratioP1;P2;durP2;ratioP2
63312;SDS011;49442;45.640;13.812;2024-02-23T00:01:30;9.90;;;3.15;;
63312;SDS011;49442;45.640;13.812;2024-02-23T00:03:56;5.07;;;2.80;;
63312;SDS011;49442;45.640;13.812;2024-02-23T00:06:22;9.77;;;3.50;;
63312;SDS011;49442;45.640;13.812;2024-02-23T00:08:53;7.93;;;2.90;;
63312;SDS011;49442;45.640;13.812;2024-02-23T00:11:20;7.15;;;2.95;;
63312;SDS011;49442;45.640;13.812;2024-02-23T00:13:46;5.60;;;3.58;;
63312;SDS011;49442;45.640;13.812;2024-02-23T00:16:12;8.55;;;3.50;;
63312;SDS011;49442;45.640;13.812;2024-02-23T00:18:38;7.35;;;3.45;;
63312;SDS011;49442;45.640;13.812;2024-02-23T00:21:04;5.40;;;3.67;;
63312;SDS011;49442;45.640;13.812;2024-02-23T00:23:29;8.55;;;2.97;;
63312;SDS011;49442;45.640;13.812;2024-02-23T00:25:55;3.58;;;2.95;;
63312;SDS011;49442;45.640;13.812;2024-02-23T00:28:21;5.05;;;3.00;;
63312;SDS011;49442;45.640;13.812;2024-02-23T00:30:47;5.25;;;3.03;;
63312;SDS011;49442;45.640;13.812;2024-02-23T00:33:12;6.25;;;2.90;;
63312;SDS011;49442;45.640;13.812;2024-02-23T00:35:38;6.30;;;3.17;;
63312;SDS011;49442;45.640;13.812;2024-02-23T00:38:04;5.15;;;2.90;;
63312;SDS011;49442;45.640;13.812;2024-02-23T00:40:30;6.85;;;3.08;;
63312;SDS011;49442;45.640;13.812;2024-02-23T00:42:55;5.50;;;2.70;;
63312;SDS011;49442;45.640;13.812;2024-02-23T00:45:21;8.77;;;3.08;;
63312;SDS011;49442;45.640;13.812;2024-02-23T00:47:47;3.13;;;2.40;;
63312;SDS011;49442;45.640;13.812;2024-02-23T00:50:13;8.27;;;3.65;;
63312;SDS011;49442;45.640;13.812;2024-02-23T00:52:39;3.42;;;2.42;;
63312;SDS011;49442;45.640;13.812;2024-02-23T00:55:06;5.25;;;2.60;;
63312;SDS011;49442;45.640;13.812;2024-02-23T00:57:33;5.10;;;2.83;;
63312;SDS011;49442;45.640;13.812;2024-02-23T01:00:03;4.95;;;3.13;;
63312;SDS011;49442;45.640;13.812;2024-02-23T01:02:30;6.55;;;2.63;;
63312;SDS011;49442;45.640;13.812;2024-02-23T01:04:56;6.10;;;2.85;;
63312;SDS011;49442;45.640;13.812;2024-02-23T01:07:23;5.63;;;2.95;;
63312;SDS011;49442;45.640;13.812;2024-02-23T01:09:50;8.02;;;3.40;;
63312;SDS011;49442;45.640;13.812;2024-02-23T01:12:16;4.90;;;2.90;;
63312;SDS011;49442;45.640;13.812;2024-02-23T01:14:41;4.80;;;2.70;;
63312;SDS011;49442;45.640;13.812;2024-02-23T01:17:07;4.93;;;2.47;;
63312;SDS011;49442;45.640;13.812;2024-02-23T01:19:33;8.27;;;3.25;;
63312;SDS011;49442;45.640;13.812;2024-02-23T01:21:58;7.90;;;2.80;;
63312;SDS011;49442;45.640;13.812;2024-02-23T01:24:27;4.80;;;2.63;;
63312;SDS011;49442;45.640;13.812;2024-02-23T01:26:54;4.72;;;2.55;;
63312;SDS011;49442;45.640;13.812;2024-02-23T01:29:24;6.97;;;3.03;;
63312;SDS011;49442;45.640;13.812;2024-02-23T01:31:51;6.40;;;2.80;;
63312;SDS011;49442;45.640;13.812;2024-02-23T01:34:17;4.32;;;2.35;;
63312;SDS011;49442;45.640;13.812;2024-02-23T01:36:43;7.25;;;2.83;;
63312;SDS011;49442;45.640;13.812;2024-02-23T01:39:09;7.13;;;2.63;;
63312;SDS011;49442;45.640;13.812;2024-02-23T01:41:36;6.30;;;3.10;;
63312;SDS011;49442;45.640;13.812;2024-02-23T01:44:01;4.85;;;2.47;;
63312;SDS011;49442;45.640;13.812;2024-02-23T01:46:27;7.57;;;3.33;;
63312;SDS011;49442;45.640;13.812;2024-02-23T01:48:53;5.28;;;3.00;;
63312;SDS011;49442;45.640;13.812;2024-02-23T01:51:19;6.53;;;3.15;;
63312;SDS011;49442;45.640;13.812;2024-02-23T01:53:45;6.57;;;2.80;;
63312;SDS011;49442;45.640;13.812;2024-02-23T01:56:11;8.30;;;3.65;;
63312;SDS011;49442;45.640;13.812;2024-02-23T02:01:09;4.03;;;2.33;;
63312;SDS011;49442;45.640;13.812;2024-02-23T02:03:37;4.00;;;2.65;;
63312;SDS011;49442;45.640;13.812;2024-02-23T02:06:04;3.70;;;2.78;;
63312;SDS011;49442;45.640;13.812;2024-02-23T02:08:34;3.70;;;2.53;;
63312;SDS011;49442;45.640;13.812;2024-02-23T02:11:00;7.55;;;3.60;;
63312;SDS011;49442;45.640;13.812;2024-02-23T02:13:29;4.95;;;2.83;;
63312;SDS011;49442;45.640;13.812;2024-02-23T02:15:55;6.47;;;3.30;;
63312;SDS011;49442;45.640;13.812;2024-02-23T02:18:23;5.75;;;3.13;;
63312;SDS011;49442;45.640;13.812;2024-02-23T02:20:53;10.10;;;2.83;;
63312;SDS011;49442;45.640;13.812;2024-02-23T02:25:52;5.00;;;3.13;;
63312;SDS011;49442;45.640;13.812;2024-02-23T02:28:18;4.03;;;2.58;;
63312;SDS011;49442;45.640;13.812;2024-02-23T02:30:44;5.35;;;2.47;;
63312;SDS011;49442;45.640;13.812;2024-02-23T02:33:10;7.18;;;3.00;;
63312;SDS011;49442;45.640;13.812;2024-02-23T02:35:36;4.75;;;2.85;;
63312;SDS011;49442;45.640;13.812;2024-02-23T02:38:01;9.65;;;2.80;;
63312;SDS011;49442;45.640;13.812;2024-02-23T02:40:27;4.28;;;3.17;;
63312;SDS011;49442;45.640;13.812;2024-02-23T02:42:53;6.47;;;3.08;;
63312;SDS011;49442;45.640;13.812;2024-02-23T02:45:18;4.75;;;2.80;;
63312;SDS011;49442;45.640;13.812;2024-02-23T02:47:44;4.10;;;2.60;;
63312;SDS011;49442;45.640;13.812;2024-02-23T02:50:10;3.63;;;3.05;;
63312;SDS011;49442;45.640;13.812;2024-02-23T02:52:35;4.65;;;2.53;;
63312;SDS011;49442;45.640;13.812;2024-02-23T02:55:01;6.15;;;2.92;;
63312;SDS011;49442;45.640;13.812;2024-02-23T02:57:27;3.88;;;2.55;;
63312;SDS011;49442;45.640;13.812;2024-02-23T02:59:53;4.40;;;2.95;;
63312;SDS011;49442;45.640;13.812;2024-02-23T03:02:18;4.78;;;2.60;;
63312;SDS011;49442;45.640;13.812;2024-02-23T03:04:50;6.53;;;2.75;;
63312;SDS011;49442;45.640;13.812;2024-02-23T03:09:42;8.00;;;3.67;;
63312;SDS011;49442;45.640;13.812;2024-02-23T03:12:08;8.77;;;3.30;;
63312;SDS011;49442;45.640;13.812;2024-02-23T03:14:33;8.32;;;2.95;;
63312;SDS011;49442;45.640;13.812;2024-02-23T03:16:59;6.25;;;2.78;;
63312;SDS011;49442;45.640;13.812;2024-02-23T03:19:25;4.40;;;2.80;;
63312;SDS011;49442;45.640;13.812;2024-02-23T03:21:52;6.63;;;2.60;;
63312;SDS011;49442;45.640;13.812;2024-02-23T03:24:17;7.78;;;2.70;;
63312;SDS011;49442;45.640;13.812;2024-02-23T03:26:43;8.15;;;3.45;;
63312;SDS011;49442;45.640;13.812;2024-02-23T03:29:09;6.57;;;2.90;;
63312;SDS011;49442;45.640;13.812;2024-02-23T03:31:35;6.28;;;2.42;;
63312;SDS011;49442;45.640;13.812;2024-02-23T03:34:02;4.75;;;2.70;;
63312;SDS011;49442;45.640;13.812;2024-02-23T03:36:28;5.55;;;2.70;;
63312;SDS011;49442;45.640;13.812;2024-02-23T03:38:54;6.20;;;2.90;;
63312;SDS011;49442;45.640;13.812;2024-02-23T03:41:19;8.48;;;2.72;;
63312;SDS011;49442;45.640;13.812;2024-02-23T03:43:45;6.28;;;2.53;;
63312;SDS011;49442;45.640;13.812;2024-02-23T03:46:10;5.07;;;2.45;;
63312;SDS011;49442;45.640;13.812;2024-02-23T03:48:37;5.10;;;2.72;;
63312;SDS011;49442;45.640;13.812;2024-02-23T03:51:06;9.48;;;2.78;;
63312;SDS011;49442;45.640;13.812;2024-02-23T03:53:33;5.68;;;2.42;;
63312;SDS011;49442;45.640;13.812;2024-02-23T03:55:59;4.15;;;2.58;;
63312;SDS011;49442;45.640;13.812;2024-02-23T03:58:25;4.68;;;2.22;;
63312;SDS011;49442;45.640;13.812;2024-02-23T04:00:51;6.53;;;2.67;;
63312;SDS011;49442;45.640;13.812;2024-02-23T04:03:16;5.47;;;2.30;;
63312;SDS011;49442;45.640;13.812;2024-02-23T04:05:42;4.65;;;2.63;;
63312;SDS011;49442;45.640;13.812;2024-02-23T04:08:08;7.78;;;2.83;;
63312;SDS011;49442;45.640;13.812;2024-02-23T04:10:34;2.88;;;2.13;;
63312;SDS011;49442;45.640;13.812;2024-02-23T04:13:00;7.53;;;2.28;;
63312;SDS011;49442;45.640;13.812;2024-02-23T04:15:26;6.65;;;2.15;;
63312;SDS011;49442;45.640;13.812;2024-02-23T04:17:53;9.95;;;2.70;;
63312;SDS011;49442;45.640;13.812;2024-02-23T04:20:19;5.65;;;2.00;;
63312;SDS011;49442;45.640;13.812;2024-02-23T04:22:44;5.40;;;2.75;;
63312;SDS011;49442;45.640;13.812;2024-02-23T04:25:11;6.60;;;2.30;;
63312;SDS011;49442;45.640;13.812;2024-02-23T04:27:37;6.57;;;1.92;;
63312;SDS011;49442;45.640;13.812;2024-02-23T04:30:03;4.30;;;2.10;;
63312;SDS011;49442;45.640;13.812;2024-02-23T04:32:29;6.97;;;1.90;;
63312;SDS011;49442;45.640;13.812;2024-02-23T04:34:55;6.47;;;2.28;;
63312;SDS011;49442;45.640;13.812;2024-02-23T04:37:21;3.70;;;1.95;;
63312;SDS011;49442;45.640;13.812;2024-02-23T04:39:47;5.28;;;2.35;;
63312;SDS011;49442;45.640;13.812;2024-02-23T04:42:13;4.32;;;1.92;;
63312;SDS011;49442;45.640;13.812;2024-02-23T04:44:40;3.45;;;1.80;;
63312;SDS011;49442;45.640;13.812;2024-02-23T04:47:07;3.45;;;2.13;;
63312;SDS011;49442;45.640;13.812;2024-02-23T04:49:32;5.20;;;2.20;;
63312;SDS011;49442;45.640;13.812;2024-02-23T04:51:58;4.53;;;2.20;;
63312;SDS011;49442;45.640;13.812;2024-02-23T04:54:23;2.13;;;1.70;;
63312;SDS011;49442;45.640;13.812;2024-02-23T04:56:49;5.47;;;1.80;;
63312;SDS011;49442;45.640;13.812;2024-02-23T04:59:15;4.95;;;2.30;;
63312;SDS011;49442;45.640;13.812;2024-02-23T05:01:41;4.35;;;1.90;;
63312;SDS011;49442;45.640;13.812;2024-02-23T05:04:07;4.25;;;1.98;;
63312;SDS011;49442;45.640;13.812;2024-02-23T05:06:33;3.53;;;1.60;;
63312;SDS011;49442;45.640;13.812;2024-02-23T05:09:00;7.80;;;2.10;;
63312;SDS011;49442;45.640;13.812;2024-02-23T05:11:26;3.38;;;1.83;;
63312;SDS011;49442;45.640;13.812;2024-02-23T05:13:52;3.45;;;1.83;;
63312;SDS011;49442;45.640;13.812;2024-02-23T05:16:18;4.78;;;1.80;;
63312;SDS011;49442;45.640;13.812;2024-02-23T05:18:43;4.05;;;2.10;;
63312;SDS011;49442;45.640;13.812;2024-02-23T05:21:11;3.63;;;1.77;;
63312;SDS011;49442;45.640;13.812;2024-02-23T05:23:37;2.97;;;1.77;;
63312;SDS011;49442;45.640;13.812;2024-02-23T05:26:03;3.38;;;1.77;;
63312;SDS011;49442;45.640;13.812;2024-02-23T05:28:28;3.17;;;1.90;;
63312;SDS011;49442;45.640;13.812;2024-02-23T05:30:54;4.13;;;1.85;;
63312;SDS011;49442;45.640;13.812;2024-02-23T05:33:21;3.65;;;1.90;;
63312;SDS011;49442;45.640;13.812;2024-02-23T05:35:47;2.38;;;1.92;;
63312;SDS011;49442;45.640;13.812;2024-02-23T05:38:16;5.53;;;2.10;;
63312;SDS011;49442;45.640;13.812;2024-02-23T05:40:42;4.47;;;1.80;;
63312;SDS011;49442;45.640;13.812;2024-02-23T05:43:08;2.35;;;1.48;;
63312;SDS011;49442;45.640;13.812;2024-02-23T05:45:33;3.08;;;1.58;;
63312;SDS011;49442;45.640;13.812;2024-02-23T05:47:59;2.15;;;1.58;;
63312;SDS011;49442;45.640;13.812;2024-02-23T05:50:25;7.47;;;1.85;;
63312;SDS011;49442;45.640;13.812;2024-02-23T05:52:51;2.42;;;1.63;;
63312;SDS011;49442;45.640;13.812;2024-02-23T05:55:18;2.75;;;1.50;;
63312;SDS011;49442;45.640;13.812;2024-02-23T05:57:43;2.85;;;1.58;;
63312;SDS011;49442;45.640;13.812;2024-02-23T06:00:09;5.78;;;1.80;;
63312;SDS011;49442;45.640;13.812;2024-02-23T06:02:36;3.00;;;1.45;;
63312;SDS011;49442;45.640;13.812;2024-02-23T06:05:02;2.45;;;1.70;;
63312;SDS011;49442;45.640;13.812;2024-02-23T06:07:29;6.97;;;1.70;;
63312;SDS011;49442;45.640;13.812;2024-02-23T06:09:55;2.25;;;1.23;;
63312;SDS011;49442;45.640;13.812;2024-02-23T06:12:21;4.45;;;1.35;;
63312;SDS011;49442;45.640;13.812;2024-02-23T06:14:47;3.70;;;1.48;;
63312;SDS011;49442;45.640;13.812;2024-02-23T06:17:13;6.22;;;1.88;;
63312;SDS011;49442;45.640;13.812;2024-02-23T06:19:39;4.00;;;1.73;;
63312;SDS011;49442;45.640;13.812;2024-02-23T06:22:04;2.72;;;1.30;;
63312;SDS011;49442;45.640;13.812;2024-02-23T06:24:31;3.80;;;1.80;;
63312;SDS011;49442;45.640;13.812;2024-02-23T06:26:56;7.53;;;2.35;;
63312;SDS011;49442;45.640;13.812;2024-02-23T06:29:23;3.08;;;1.95;;
63312;SDS011;49442;45.640;13.812;2024-02-23T06:31:48;3.45;;;1.63;;
63312;SDS011;49442;45.640;13.812;2024-02-23T06:34:15;6.05;;;1.55;;
63312;SDS011;49442;45.640;13.812;2024-02-23T06:36:41;8.20;;;1.88;;
63312;SDS011;49442;45.640;13.812;2024-02-23T06:39:07;6.32;;;2.30;;
63312;SDS011;49442;45.640;13.812;2024-02-23T06:41:33;11.80;;;3.58;;
63312;SDS011;49442;45.640;13.812;2024-02-23T06:43:59;11.18;;;2.90;;
63312;SDS011;49442;45.640;13.812;2024-02-23T06:46:25;11.02;;;3.97;;
63312;SDS011;49442;45.640;13.812;2024-02-23T06:48:51;12.57;;;3.15;;
63312;SDS011;49442;45.640;13.812;2024-02-23T06:51:17;9.98;;;3.58;;
63312;SDS011;49442;45.640;13.812;2024-02-23T06:53:42;13.30;;;3.63;;
63312;SDS011;49442;45.640;13.812;2024-02-23T06:56:08;12.75;;;2.85;;
63312;SDS011;49442;45.640;13.812;2024-02-23T06:58:34;16.13;;;3.47;;
63312;SDS011;49442;45.640;13.812;2024-02-23T07:01:00;15.85;;;4.18;;
63312;SDS011;49442;45.640;13.812;2024-02-23T07:06:14;12.68;;;3.70;;
63312;SDS011;49442;45.640;13.812;2024-02-23T07:08:43;15.18;;;3.53;;
63312;SDS011;49442;45.640;13.812;2024-02-23T07:11:09;17.77;;;3.90;;
63312;SDS011;49442;45.640;13.812;2024-02-23T07:13:35;9.55;;;3.63;;
63312;SDS011;49442;45.640;13.812;2024-02-23T07:16:01;13.75;;;3.95;;
63312;SDS011;49442;45.640;13.812;2024-02-23T07:18:27;12.05;;;3.70;;
63312;SDS011;49442;45.640;13.812;2024-02-23T07:20:53;11.48;;;3.15;;
63312;SDS011;49442;45.640;13.812;2024-02-23T07:23:18;10.52;;;3.92;;
63312;SDS011;49442;45.640;13.812;2024-02-23T07:25:44;13.48;;;3.88;;
63312;SDS011;49442;45.640;13.812;2024-02-23T07:28:10;15.80;;;4.13;;
63312;SDS011;49442;45.640;13.812;2024-02-23T07:30:35;10.05;;;3.78;;
63312;SDS011;49442;45.640;13.812;2024-02-23T07:33:01;14.77;;;3.72;;
63312;SDS011;49442;45.640;13.812;2024-02-23T07:35:27;21.45;;;4.90;;
63312;SDS011;49442;45.640;13.812;2024-02-23T07:37:53;16.65;;;4.65;;
63312;SDS011;49442;45.640;13.812;2024-02-23T07:40:20;13.43;;;4.10;;
63312;SDS011;49442;45.640;13.812;2024-02-23T07:42:45;11.45;;;3.60;;
63312;SDS011;49442;45.640;13.812;2024-02-23T07:45:11;12.20;;;4.35;;
63312;SDS011;49442;45.640;13.812;2024-02-23T07:47:37;11.68;;;4.50;;
63312;SDS011;49442;45.640;13.812;2024-02-23T07:50:02;12.00;;;3.90;;
63312;SDS011;49442;45.640;13.812;2024-02-23T07:52:28;11.55;;;3.53;;
63312;SDS011;49442;45.640;13.812;2024-02-23T07:54:54;11.90;;;3.05;;
63312;SDS011;49442;45.640;13.812;2024-02-23T07:57:20;9.23;;;3.10;;
63312;SDS011;49442;45.640;13.812;2024-02-23T07:59:46;12.75;;;3.63;;
63312;SDS011;49442;45.640;13.812;2024-02-23T08:02:13;14.95;;;3.40;;
63312;SDS011;49442;45.640;13.812;2024-02-23T08:04:40;12.90;;;4.13;;
63312;SDS011;49442;45.640;13.812;2024-02-23T08:07:05;9.70;;;3.38;;
63312;SDS011;49442;45.640;13.812;2024-02-23T08:09:31;13.65;;;3.60;;
63312;SDS011;49442;45.640;13.812;2024-02-23T08:11:57;11.27;;;3.95;;
63312;SDS011;49442;45.640;13.812;2024-02-23T08:14:23;10.82;;;3.53;;
63312;SDS011;49442;45.640;13.812;2024-02-23T08:16:48;9.90;;;3.55;;
63312;SDS011;49442;45.640;13.812;2024-02-23T08:19:15;11.05;;;3.08;;
63312;SDS011;49442;45.640;13.812;2024-02-23T08:21:41;11.23;;;3.65;;
63312;SDS011;49442;45.640;13.812;2024-02-23T08:24:08;14.07;;;3.65;;
63312;SDS011;49442;45.640;13.812;2024-02-23T08:26:34;10.38;;;3.45;;
63312;SDS011;49442;45.640;13.812;2024-02-23T08:29:00;9.77;;;3.60;;
63312;SDS011;49442;45.640;13.812;2024-02-23T08:31:25;9.95;;;3.60;;
63312;SDS011;49442;45.640;13.812;2024-02-23T08:33:51;9.88;;;3.85;;
63312;SDS011;49442;45.640;13.812;2024-02-23T08:36:17;10.57;;;4.07;;
63312;SDS011;49442;45.640;13.812;2024-02-23T08:38:42;9.15;;;3.85;;
63312;SDS011;49442;45.640;13.812;2024-02-23T08:41:08;22.70;;;4.57;;
63312;SDS011;49442;45.640;13.812;2024-02-23T08:43:34;9.13;;;3.85;;
63312;SDS011;49442;45.640;13.812;2024-02-23T08:45:59;13.45;;;4.10;;
63312;SDS011;49442;45.640;13.812;2024-02-23T08:48:25;12.57;;;4.30;;
63312;SDS011;49442;45.640;13.812;2024-02-23T08:50:50;9.23;;;3.92;;
63312;SDS011;49442;45.640;13.812;2024-02-23T08:53:16;12.73;;;4.30;;
63312;SDS011;49442;45.640;13.812;2024-02-23T08:55:42;10.55;;;3.92;;
63312;SDS011;49442;45.640;13.812;2024-02-23T08:58:08;10.57;;;4.05;;
63312;SDS011;49442;45.640;13.812;2024-02-23T09:00:34;13.98;;;4.38;;
63312;SDS011;49442;45.640;13.812;2024-02-23T09:03:02;10.82;;;4.90;;
63312;SDS011;49442;45.640;13.812;2024-02-23T09:05:28;9.40;;;3.88;;
63312;SDS011;49442;45.640;13.812;2024-02-23T09:07:53;12.98;;;3.75;;
63312;SDS011;49442;45.640;13.812;2024-02-23T09:10:19;17.80;;;3.85;;
63312;SDS011;49442;45.640;13.812;2024-02-23T09:12:45;8.45;;;3.53;;
63312;SDS011;49442;45.640;13.812;2024-02-23T09:15:11;10.27;;;4.35;;
63312;SDS011;49442;45.640;13.812;2024-02-23T09:17:36;16.88;;;3.70;;
63312;SDS011;49442;45.640;13.812;2024-02-23T09:20:02;10.85;;;3.78;;
63312;SDS011;49442;45.640;13.812;2024-02-23T09:22:28;13.63;;;4.25;;
63312;SDS011;49442;45.640;13.812;2024-02-23T09:24:54;11.77;;;3.88;;
63312;SDS011;49442;45.640;13.812;2024-02-23T09:27:21;12.45;;;3.92;;
63312;SDS011;49442;45.640;13.812;2024-02-23T09:29:47;9.52;;;4.40;;
63312;SDS011;49442;45.640;13.812;2024-02-23T09:32:12;11.02;;;3.58;;
63312;SDS011;49442;45.640;13.812;2024-02-23T09:34:38;18.75;;;4.43;;
63312;SDS011;49442;45.640;13.812;2024-02-23T09:37:03;12.20;;;3.97;;
63312;SDS011;49442;45.640;13.812;2024-02-23T09:39:29;16.08;;;4.60;;
63312;SDS011;49442;45.640;13.812;2024-02-23T09:41:55;16.05;;;4.28;;
63312;SDS011;49442;45.640;13.812;2024-02-23T09:44:22;7.50;;;4.22;;
63312;SDS011;49442;45.640;13.812;2024-02-23T09:46:48;12.10;;;4.60;;
63312;SDS011;49442;45.640;13.812;2024-02-23T09:49:14;30.08;;;4.97;;
63312;SDS011;49442;45.640;13.812;2024-02-23T09:51:41;8.45;;;3.92;;
63312;SDS011;49442;45.640;13.812;2024-02-23T09:54:07;13.27;;;4.43;;
63312;SDS011;49442;45.640;13.812;2024-02-23T09:56:33;11.52;;;5.00;;
63312;SDS011;49442;45.640;13.812;2024-02-23T09:59:02;19.52;;;4.38;;
63312;SDS011;49442;45.640;13.812;2024-02-23T10:01:29;14.23;;;4.82;;
63312;SDS011;49442;45.640;13.812;2024-02-23T10:04:00;14.77;;;4.97;;
63312;SDS011;49442;45.640;13.812;2024-02-23T10:06:27;14.43;;;4.45;;
63312;SDS011;49442;45.640;13.812;2024-02-23T10:08:53;13.32;;;4.63;;
63312;SDS011;49442;45.640;13.812;2024-02-23T10:11:22;12.25;;;4.78;;
63312;SDS011;49442;45.640;13.812;2024-02-23T10:13:49;14.45;;;4.50;;
63312;SDS011;49442;45.640;13.812;2024-02-23T10:16:16;14.30;;;4.85;;
63312;SDS011;49442;45.640;13.812;2024-02-23T10:18:46;13.48;;;4.43;;
63312;SDS011;49442;45.640;13.812;2024-02-23T10:21:15;17.52;;;4.93;;
63312;SDS011;49442;45.640;13.812;2024-02-23T10:23:42;16.42;;;4.85;;
63312;SDS011;49442;45.640;13.812;2024-02-23T10:26:09;14.05;;;4.43;;
63312;SDS011;49442;45.640;13.812;2024-02-23T10:28:36;12.43;;;4.25;;
63312;SDS011;49442;45.640;13.812;2024-02-23T10:31:04;12.65;;;4.63;;
63312;SDS011;49442;45.640;13.812;2024-02-23T10:33:32;19.25;;;5.85;;
63312;SDS011;49442;45.640;13.812;2024-02-23T10:35:59;16.52;;;4.45;;
63312;SDS011;49442;45.640;13.812;2024-02-23T10:38:26;15.52;;;4.75;;
63312;SDS011;49442;45.640;13.812;2024-02-23T10:40:56;20.23;;;5.10;;
63312;SDS011;49442;45.640;13.812;2024-02-23T10:43:25;14.85;;;5.38;;
63312;SDS011;49442;45.640;13.812;2024-02-23T10:45:59;21.80;;;5.53;;
63312;SDS011;49442;45.640;13.812;2024-02-23T10:48:28;18.90;;;5.25;;
63312;SDS011;49442;45.640;13.812;2024-02-23T10:50:55;19.30;;;5.60;;
63312;SDS011;49442;45.640;13.812;2024-02-23T10:53:23;14.90;;;5.63;;
63312;SDS011;49442;45.640;13.812;2024-02-23T10:55:51;20.13;;;5.63;;
63312;SDS011;49442;45.640;13.812;2024-02-23T10:58:22;15.43;;;5.50;;
63312;SDS011;49442;45.640;13.812;2024-02-23T11:00:48;14.82;;;5.82;;
63312;SDS011;49442;45.640;13.812;2024-02-23T11:03:14;13.98;;;5.65;;
63312;SDS011;49442;45.640;13.812;2024-02-23T11:05:40;13.80;;;5.30;;
63312;SDS011;49442;45.640;13.812;2024-02-23T11:08:06;11.13;;;5.32;;
63312;SDS011;49442;45.640;13.812;2024-02-23T11:10:41;14.80;;;6.28;;
63312;SDS011;49442;45.640;13.812;2024-02-23T11:13:07;15.45;;;6.20;;
63312;SDS011;49442;45.640;13.812;2024-02-23T11:15:33;24.55;;;6.03;;
63312;SDS011;49442;45.640;13.812;2024-02-23T11:18:20;17.23;;;6.45;;
63312;SDS011;49442;45.640;13.812;2024-02-23T11:21:00;20.08;;;6.45;;
63312;SDS011;49442;45.640;13.812;2024-02-23T11:23:38;16.33;;;5.93;;
63312;SDS011;49442;45.640;13.812;2024-02-23T11:26:16;21.40;;;7.50;;
63312;SDS011;49442;45.640;13.812;2024-02-23T11:28:52;21.20;;;6.70;;
63312;SDS011;49442;45.640;13.812;2024-02-23T11:31:19;17.83;;;6.57;;
63312;SDS011;49442;45.640;13.812;2024-02-23T11:33:49;16.90;;;6.60;;
63312;SDS011;49442;45.640;13.812;2024-02-23T11:36:29;16.27;;;7.10;;
63312;SDS011;49442;45.640;13.812;2024-02-23T11:38:59;20.27;;;7.18;;
63312;SDS011;49442;45.640;13.812;2024-02-23T11:41:26;21.58;;;6.72;;
63312;SDS011;49442;45.640;13.812;2024-02-23T11:43:53;22.88;;;6.75;;
63312;SDS011;49442;45.640;13.812;2024-02-23T11:46:20;20.35;;;6.80;;
63312;SDS011;49442;45.640;13.812;2024-02-23T11:48:47;21.30;;;6.47;;
63312;SDS011;49442;45.640;13.812;2024-02-23T11:53:48;14.18;;;6.43;;
63312;SDS011;49442;45.640;13.812;2024-02-23T11:56:14;17.52;;;7.18;;
63312;SDS011;49442;45.640;13.812;2024-02-23T11:58:40;20.08;;;7.00;;
63312;SDS011;49442;45.640;13.812;2024-02-23T12:01:07;16.08;;;6.57;;
63312;SDS011;49442;45.640;13.812;2024-02-23T12:03:33;23.27;;;7.72;;
63312;SDS011;49442;45.640;13.812;2024-02-23T12:06:02;18.23;;;6.13;;
63312;SDS011;49442;45.640;13.812;2024-02-23T12:08:29;20.75;;;8.05;;
63312;SDS011;49442;45.640;13.812;2024-02-23T12:11:02;19.85;;;6.53;;
63312;SDS011;49442;45.640;13.812;2024-02-23T12:13:33;16.08;;;6.68;;
63312;SDS011;49442;45.640;13.812;2024-02-23T12:16:02;21.55;;;7.45;;
63312;SDS011;49442;45.640;13.812;2024-02-23T12:18:29;21.05;;;7.70;;
63312;SDS011;49442;45.640;13.812;2024-02-23T12:21:01;21.17;;;6.60;;
63312;SDS011;49442;45.640;13.812;2024-02-23T12:23:42;24.25;;;7.32;;
63312;SDS011;49442;45.640;13.812;2024-02-23T12:26:13;21.42;;;6.30;;
63312;SDS011;49442;45.640;13.812;2024-02-23T12:28:40;22.20;;;6.85;;
63312;SDS011;49442;45.640;13.812;2024-02-23T12:31:06;16.80;;;6.20;;
63312;SDS011;49442;45.640;13.812;2024-02-23T12:33:33;21.17;;;7.18;;
63312;SDS011;49442;45.640;13.812;2024-02-23T12:36:00;22.58;;;7.10;;
63312;SDS011;49442;45.640;13.812;2024-02-23T12:38:27;27.50;;;8.65;;
63312;SDS011;49442;45.640;13.812;2024-02-23T12:40:53;19.88;;;6.60;;
63312;SDS011;49442;45.640;13.812;2024-02-23T12:43:20;22.98;;;7.55;;
63312;SDS011;49442;45.640;13.812;2024-02-23T12:45:54;22.92;;;7.28;;
63312;SDS011;49442;45.640;13.812;2024-02-23T12:48:20;22.58;;;7.28;;
63312;SDS011;49442;45.640;13.812;2024-02-23T12:50:47;25.30;;;7.75;;
63312;SDS011;49442;45.640;13.812;2024-02-23T12:53:32;20.45;;;7.13;;
63312;SDS011;49442;45.640;13.812;2024-02-23T12:56:05;20.23;;;6.88;;
63312;SDS011;49442;45.640;13.812;2024-02-23T12:58:33;23.98;;;8.25;;
63312;SDS011;49442;45.640;13.812;2024-02-23T13:01:00;22.00;;;6.85;;
63312;SDS011;49442;45.640;13.812;2024-02-23T13:03:25;20.55;;;7.15;;
63312;SDS011;49442;45.640;13.812;2024-02-23T13:05:52;19.33;;;7.10;;
63312;SDS011;49442;45.640;13.812;2024-02-23T13:08:19;25.13;;;7.28;;
63312;SDS011;49442;45.640;13.812;2024-02-23T13:10:44;24.27;;;8.13;;
63312;SDS011;49442;45.640;13.812;2024-02-23T13:13:10;20.83;;;7.38;;
63312;SDS011;49442;45.640;13.812;2024-02-23T13:15:37;23.75;;;7.30;;
63312;SDS011;49442;45.640;13.812;2024-02-23T13:18:04;27.77;;;8.43;;
63312;SDS011;49442;45.640;13.812;2024-02-23T13:20:29;20.30;;;7.15;;
63312;SDS011;49442;45.640;13.812;2024-02-23T13:22:55;28.20;;;8.25;;
63312;SDS011;49442;45.640;13.812;2024-02-23T13:25:21;21.20;;;8.88;;
63312;SDS011;49442;45.640;13.812;2024-02-23T13:27:47;27.23;;;7.97;;
63312;SDS011;49442;45.640;13.812;2024-02-23T13:30:12;23.60;;;7.05;;
63312;SDS011;49442;45.640;13.812;2024-02-23T13:32:39;18.42;;;7.55;;
63312;SDS011;49442;45.640;13.812;2024-02-23T13:35:05;15.60;;;7.57;;
63312;SDS011;49442;45.640;13.812;2024-02-23T13:37:31;22.35;;;8.10;;
63312;SDS011;49442;45.640;13.812;2024-02-23T13:39:57;19.98;;;7.97;;
63312;SDS011;49442;45.640;13.812;2024-02-23T13:42:23;16.08;;;7.35;;
63312;SDS011;49442;45.640;13.812;2024-02-23T13:44:49;17.17;;;7.28;;
63312;SDS011;49442;45.640;13.812;2024-02-23T13:47:14;17.60;;;7.03;;
63312;SDS011;49442;45.640;13.812;2024-02-23T13:49:40;19.08;;;8.52;;
63312;SDS011;49442;45.640;13.812;2024-02-23T13:52:06;21.23;;;7.93;;
63312;SDS011;49442;45.640;13.812;2024-02-23T13:54:32;20.80;;;8.55;;
63312;SDS011;49442;45.640;13.812;2024-02-23T13:56:57;19.85;;;7.35;;
63312;SDS011;49442;45.640;13.812;2024-02-23T13:59:23;23.80;;;8.32;;
63312;SDS011;49442;45.640;13.812;2024-02-23T14:01:49;22.80;;;8.50;;
63312;SDS011;49442;45.640;13.812;2024-02-23T14:04:15;23.90;;;7.50;;
63312;SDS011;49442;45.640;13.812;2024-02-23T14:06:42;22.15;;;7.25;;
63312;SDS011;49442;45.640;13.812;2024-02-23T14:09:08;26.45;;;7.75;;
63312;SDS011;49442;45.640;13.812;2024-02-23T14:11:34;18.80;;;7.28;;
63312;SDS011;49442;45.640;13.812;2024-02-23T14:14:00;16.85;;;7.28;;
63312;SDS011;49442;45.640;13.812;2024-02-23T14:16:27;18.58;;;8.00;;
63312;SDS011;49442;45.640;13.812;2024-02-23T14:18:53;12.40;;;6.07;;
63312;SDS011;49442;45.640;13.812;2024-02-23T14:21:20;14.35;;;7.30;;
63312;SDS011;49442;45.640;13.812;2024-02-23T14:23:47;16.00;;;6.35;;
63312;SDS011;49442;45.640;13.812;2024-02-23T14:26:13;17.83;;;6.63;;
63312;SDS011;49442;45.640;13.812;2024-02-23T14:28:39;15.00;;;6.75;;
63312;SDS011;49442;45.640;13.812;2024-02-23T14:31:05;18.98;;;7.28;;
63312;SDS011;49442;45.640;13.812;2024-02-23T14:33:31;20.30;;;7.43;;
63312;SDS011;49442;45.640;13.812;2024-02-23T14:35:57;16.85;;;7.85;;
63312;SDS011;49442;45.640;13.812;2024-02-23T14:38:22;20.60;;;7.45;;